»·PEaware :: N7744S KWHP-KAVX

N7744S :: KWHP-KAVX

FLIGHT INFORMATION

Flight Status: Arrived
Operator: Privately registered:
United States
More flights under this callsign
Pilot: Eugenio Joel D. (45026)
Aircraft: CESSNA 172 SKYHAWK
(C172)
More flights by this aircraft type
Origin: KWHP Whiteman
United States
Destination: KAVX Catalina
United States
More flights between these airports :: More routes between these airports
Route:
File this flight plan on PilotEdge
Remarks:
Altitude:
(Current/Filed)
5,500ft
Speed:
(Current/Filed)
0kts
Departed: 28-Aug-23 11:37 AM
Arrived: 28-Aug-23 12:35 PM
Distance/Time
Traveled:
47nm/0:58
Distance/Time
To Go:
Arrived

Flight Plot

Page will automatically refresh every two minutes.

Flight plan parsing failed; only flown route is shown


Map Options




Map Legend


Flown Route
Filed Route
Departure Airport
Arrival Airport
Navaid (VOR, NDB)
Fix

Horizontal Profiles

Position Reports

Time Latitude Longitude Heading Altitude Ground
Speed
28-Aug-23 11:26 34.260898 -118.412229 229 1003ft 0kts
28-Aug-23 11:27 34.260267 -118.413101 227 1000ft 9kts
28-Aug-23 11:28 34.261941 -118.415593 318 997ft 23kts
28-Aug-23 11:29 34.263585 -118.417014 261 998ft 0kts
28-Aug-23 11:30 34.263585 -118.417014 261 998ft 0kts
28-Aug-23 11:31 34.263606 -118.417291 299 998ft 9kts
28-Aug-23 11:32 34.263689 -118.417419 305 998ft 0kts
28-Aug-23 11:33 34.263689 -118.417419 305 998ft 0kts
28-Aug-23 11:34 34.263689 -118.417419 305 998ft 0kts
28-Aug-23 11:35 34.263442 -118.417834 142 997ft 8kts
28-Aug-23 11:36 34.252005 -118.402574 127 1306ft 83kts
28-Aug-23 11:37 34.236455 -118.383520 157 2081ft 80kts
28-Aug-23 11:38 34.213231 -118.376105 168 2561ft 105kts
28-Aug-23 11:45 34.263278 -118.415800 237 1002ft 0kts
28-Aug-23 11:46 34.263278 -118.415800 237 1002ft 0kts
28-Aug-23 11:47 34.263278 -118.415800 237 1002ft 0kts
28-Aug-23 11:48 34.263278 -118.415800 237 1002ft 0kts
28-Aug-23 11:49 34.263278 -118.415800 237 1002ft 0kts
28-Aug-23 11:50 34.263278 -118.415800 237 1002ft 0kts
28-Aug-23 11:51 34.263278 -118.415800 237 1002ft 0kts
28-Aug-23 11:52 34.263278 -118.415800 237 1002ft 0kts
28-Aug-23 11:53 34.263668 -118.417403 296 998ft 0kts
28-Aug-23 11:54 34.263670 -118.417660 242 997ft 8kts
28-Aug-23 11:55 34.254852 -118.408385 133 1172ft 83kts
28-Aug-23 11:56 34.240634 -118.384699 134 1943ft 89kts
28-Aug-23 11:57 34.217379 -118.382868 210 2497ft 108kts
28-Aug-23 11:58 34.189507 -118.404796 214 2493ft 120kts
28-Aug-23 11:59 34.161249 -118.426864 214 2492ft 120kts
28-Aug-23 12:00 34.132994 -118.448892 214 2491ft 121kts
28-Aug-23 12:01 34.112741 -118.475928 259 2764ft 97kts
28-Aug-23 12:02 34.121000 -118.499246 358 3496ft 83kts
28-Aug-23 12:04 34.114297 -118.501300 272 4057ft 80kts
28-Aug-23 12:05 34.114587 -118.502414 300 4615ft 80kts
28-Aug-23 12:06 34.115873 -118.501754 299 5123ft 80kts
28-Aug-23 12:07 34.111161 -118.489779 153 5499ft 98kts
28-Aug-23 12:08 34.082504 -118.474183 170 5493ft 120kts
28-Aug-23 12:09 34.049189 -118.464888 168 5522ft 122kts
28-Aug-23 12:10 34.015801 -118.455412 168 5552ft 124kts
28-Aug-23 12:11 33.982012 -118.445842 168 5556ft 125kts
28-Aug-23 12:12 33.947949 -118.436198 168 5558ft 125kts
28-Aug-23 12:13 33.917011 -118.417915 145 5553ft 126kts
28-Aug-23 12:14 33.890475 -118.390403 134 5548ft 126kts
28-Aug-23 12:15 33.866615 -118.359946 134 5583ft 126kts
28-Aug-23 12:16 33.842553 -118.329262 134 5583ft 126kts
28-Aug-23 12:17 33.816560 -118.301119 142 5584ft 126kts
28-Aug-23 12:18 33.788503 -118.274077 142 5471ft 127kts
28-Aug-23 12:19 33.758505 -118.259784 185 5619ft 114kts
28-Aug-23 12:20 33.733551 -118.245346 141 6073ft 104kts
28-Aug-23 12:21 33.713600 -118.223168 172 6468ft 106kts
28-Aug-23 12:22 33.684980 -118.237865 209 6474ft 118kts
28-Aug-23 12:23 33.656171 -118.256309 209 6475ft 117kts
28-Aug-23 12:24 33.627346 -118.274661 209 6466ft 117kts
28-Aug-23 12:25 33.599003 -118.292795 209 6223ft 109kts
28-Aug-23 12:26 33.573460 -118.309032 209 5683ft 100kts
28-Aug-23 12:27 33.548989 -118.324567 209 5178ft 98kts
28-Aug-23 12:28 33.525704 -118.342150 222 4731ft 103kts
28-Aug-23 12:29 33.504575 -118.364549 229 4563ft 104kts
28-Aug-23 12:30 33.483566 -118.390370 226 4205ft 111kts
28-Aug-23 12:31 33.459516 -118.414161 217 3829ft 112kts
28-Aug-23 12:32 33.431714 -118.431631 213 3201ft 109kts
28-Aug-23 12:32 33.415934 -118.417893 56 2406ft 122kts
28-Aug-23 12:33 33.418764 -118.395913 184 2136ft 86kts
28-Aug-23 12:35 33.404850 -118.416068 233 1585ft 21kts
28-Aug-23 12:36 33.403317 -118.415392 1 1590ft 0kts
28-Aug-23 12:36 33.403317 -118.415392 1 1590ft 0kts
28-Aug-23 12:37 33.403317 -118.415392 1 1590ft 0kts
28-Aug-23 12:39 33.403317 -118.415392 1 1590ft 0kts
28-Aug-23 12:40 33.403317 -118.415392 1 1590ft 0kts
28-Aug-23 12:40 33.403317 -118.415392 1 1590ft 0kts
28-Aug-23 12:41 33.405636 -118.414020 54 1571ft 19kts
28-Aug-23 12:42 33.406733 -118.412901 234 1558ft 37kts
28-Aug-23 12:44 33.398527 -118.433368 347 2197ft 77kts
28-Aug-23 12:44 33.413123 -118.422285 32 2831ft 82kts
28-Aug-23 12:45 33.432316 -118.406978 32 3635ft 83kts
28-Aug-23 12:46 33.453705 -118.396122 20 4287ft 84kts
28-Aug-23 12:47 33.475841 -118.386543 18 4914ft 85kts

Navigation Log

Ident Type
Flight plan parsing failed, navigation log unavailable